Time;durP1;ratioP1;P1;durP2;ratioP2;P2;SDS_P1;SDS_P2;PMS_P1;PMS_P2;Temp;Humidity;BMP_temperature;BMP_pressure;BME280_temperature;BME280_humidity;BME280_pressure;Samples;Min_cycle;Max_cycle;Signal;HPM_P1;HPM_P2
2023/09/27 00:02:25;;;;;;;3.70;2.77;;;16.60;99.90;;;;;;1892603;76;21130;-78
2023/09/27 00:05:17;;;;;;;4.37;2.90;;;16.60;99.90;;;;;;1892365;76;21118;-78
2023/09/27 00:08:11;;;;;;;5.80;3.20;;;16.60;99.90;;;;;;1892399;76;21170;-78
2023/09/27 00:11:03;;;;;;;5.25;3.17;;;16.70;99.90;;;;;;1892598;76;21075;-78
2023/09/27 00:13:54;;;;;;;5.95;3.25;;;16.60;99.90;;;;;;1892620;76;21631;-79
2023/09/27 00:16:46;;;;;;;6.78;3.27;;;16.50;99.90;;;;;;1892574;76;21215;-79
2023/09/27 00:19:38;;;;;;;5.83;4.08;;;16.50;99.90;;;;;;1892743;76;21119;-79
2023/09/27 00:22:29;;;;;;;6.60;4.15;;;16.50;99.90;;;;;;1892576;76;21103;-79
2023/09/27 00:25:21;;;;;;;5.12;3.33;;;16.50;99.90;;;;;;1892781;76;21111;-79
2023/09/27 00:28:13;;;;;;;7.08;3.65;;;16.40;99.90;;;;;;1884713;75;21598;-80
2023/09/27 00:31:04;;;;;;;5.03;3.25;;;16.40;99.90;;;;;;1883994;76;21089;-79
2023/09/27 00:33:57;;;;;;;6.17;3.33;;;16.30;99.90;;;;;;1883941;76;21144;-79
2023/09/27 00:36:49;;;;;;;6.00;3.30;;;16.20;99.90;;;;;;1883727;76;21230;-79
2023/09/27 00:39:42;;;;;;;4.20;2.80;;;16.30;99.90;;;;;;1883815;76;21678;-79
2023/09/27 00:42:33;;;;;;;4.35;2.80;;;16.20;99.90;;;;;;1883597;76;21155;-78
2023/09/27 00:45:25;;;;;;;5.10;3.02;;;16.20;99.90;;;;;;1883931;76;21144;-78
2023/09/27 00:48:17;;;;;;;5.15;3.00;;;16.30;99.90;;;;;;1883982;76;21233;-78
2023/09/27 00:51:10;;;;;;;4.95;3.00;;;16.30;99.90;;;;;;1884008;76;21119;-78
2023/09/27 00:54:02;;;;;;;4.87;3.47;;;16.30;99.90;;;;;;1884056;76;21108;-78
2023/09/27 00:56:54;;;;;;;4.40;3.17;;;16.20;99.90;;;;;;1884205;76;21167;-79
2023/09/27 00:59:47;;;;;;;4.80;3.00;;;16.20;99.90;;;;;;1883900;76;21141;-79
2023/09/27 01:02:39;;;;;;;4.78;3.00;;;16.10;99.90;;;;;;1884060;76;21104;-78
2023/09/27 01:05:32;;;;;;;5.67;2.95;;;16.10;99.90;;;;;;1883823;76;21111;-78
2023/09/27 01:08:24;;;;;;;5.67;2.67;;;16.00;99.90;;;;;;1883407;76;21170;-78
2023/09/27 01:11:15;;;;;;;4.80;3.05;;;16.10;99.90;;;;;;1884065;76;21427;-79
2023/09/27 01:14:09;;;;;;;5.58;2.80;;;16.10;99.90;;;;;;1883865;76;21586;-78
2023/09/27 01:17:10;;;;;;;4.30;2.87;;;16.10;99.90;;;;;;1883816;76;21168;-78
2023/09/27 01:20:02;;;;;;;5.92;3.00;;;16.00;99.90;;;;;;1883785;76;21106;-79
2023/09/27 01:22:58;;;;;;;3.60;2.42;;;16.00;99.90;;;;;;1883715;76;21108;-79
2023/09/27 01:25:52;;;;;;;4.53;3.02;;;15.90;99.90;;;;;;1883851;76;21107;-79
2023/09/27 01:28:45;;;;;;;6.70;2.80;;;15.90;99.90;;;;;;1874684;75;21177;-78
2023/09/27 01:31:38;;;;;;;5.05;3.02;;;15.90;99.90;;;;;;1883498;76;22178;-78
2023/09/27 01:34:30;;;;;;;3.72;2.60;;;15.90;99.90;;;;;;1871526;77;21160;-78
2023/09/27 01:37:21;;;;;;;4.58;2.90;;;15.90;99.90;;;;;;1883760;76;21141;-78
2023/09/27 01:40:20;;;;;;;5.97;2.47;;;15.90;99.90;;;;;;1871799;77;21185;-78
2023/09/27 01:43:07;;;;;;;4.03;2.87;;;15.90;99.90;;;;;;1883652;76;21127;-79
2023/09/27 01:45:58;;;;;;;3.65;2.77;;;15.90;99.90;;;;;;1871544;77;21069;-78
2023/09/27 01:48:51;;;;;;;4.72;2.70;;;15.90;99.90;;;;;;1883637;76;21210;-78
2023/09/27 01:51:43;;;;;;;4.65;2.67;;;15.90;99.90;;;;;;1883411;76;21122;-79
2023/09/27 01:54:35;;;;;;;4.10;2.50;;;15.90;99.90;;;;;;1871404;77;21195;-79
2023/09/27 01:57:27;;;;;;;3.77;2.20;;;15.90;99.90;;;;;;1883474;76;21534;-79
2023/09/27 02:00:20;;;;;;;4.20;2.87;;;15.90;99.90;;;;;;1883361;76;21140;-79
2023/09/27 02:03:12;;;;;;;3.75;2.83;;;15.80;99.90;;;;;;1871031;77;21093;-78
2023/09/27 02:06:03;;;;;;;4.42;2.67;;;15.80;99.90;;;;;;1870936;77;21170;-79
2023/09/27 02:08:55;;;;;;;4.97;2.70;;;15.80;99.90;;;;;;1871702;77;21169;-78
2023/09/27 02:11:47;;;;;;;4.60;2.92;;;15.70;99.90;;;;;;1883730;76;21138;-78
2023/09/27 02:14:39;;;;;;;5.15;2.72;;;15.70;99.90;;;;;;1871722;77;21182;-78
2023/09/27 02:17:30;;;;;;;3.85;2.70;;;15.50;99.90;;;;;;1883470;76;21108;-78
2023/09/27 02:20:23;;;;;;;5.25;2.87;;;15.50;99.90;;;;;;1871484;77;21065;-78
2023/09/27 02:23:15;;;;;;;5.47;2.85;;;15.50;99.90;;;;;;1908074;75;21075;-79
2023/09/27 02:26:07;;;;;;;3.90;2.90;;;15.40;99.90;;;;;;1916479;75;21159;-80
2023/09/27 02:28:58;;;;;;;5.05;3.22;;;15.30;99.90;;;;;;1916544;74;21071;-78
2023/09/27 02:31:52;;;;;;;4.67;2.72;;;15.30;99.90;;;;;;1916448;75;21152;-78
2023/09/27 02:34:44;;;;;;;6.37;2.80;;;15.30;99.90;;;;;;1916210;75;21106;-78
2023/09/27 02:37:36;;;;;;;5.42;3.08;;;15.30;99.90;;;;;;1916277;75;21675;-78
2023/09/27 02:40:28;;;;;;;5.12;2.42;;;15.20;99.90;;;;;;1916666;75;21055;-78
2023/09/27 02:43:20;;;;;;;5.10;3.30;;;15.20;99.90;;;;;;1916536;75;21113;-79
2023/09/27 02:46:15;;;;;;;3.77;2.47;;;15.20;99.90;;;;;;1916349;75;21171;-79
2023/09/27 02:49:07;;;;;;;4.47;2.98;;;15.10;99.90;;;;;;1916264;75;21107;-79
2023/09/27 02:51:59;;;;;;;4.83;3.05;;;15.10;99.90;;;;;;1916282;75;21139;-79
2023/09/27 02:54:51;;;;;;;5.47;2.90;;;15.10;99.90;;;;;;1916181;75;21135;-79
2023/09/27 02:57:48;;;;;;;5.25;2.98;;;15.10;99.90;;;;;;1916317;75;21052;-79
2023/09/27 03:00:37;;;;;;;3.77;2.87;;;15.10;99.90;;;;;;1916599;75;21132;-78
2023/09/27 03:03:30;;;;;;;4.37;2.70;;;15.10;99.90;;;;;;1916490;75;21110;-79
2023/09/27 03:06:22;;;;;;;4.47;3.05;;;15.20;99.90;;;;;;1916343;75;21117;-79
2023/09/27 03:09:15;;;;;;;4.30;2.70;;;15.20;99.90;;;;;;1916370;75;21131;-79
2023/09/27 03:12:08;;;;;;;4.70;3.00;;;15.20;99.90;;;;;;1916134;75;21149;-79
2023/09/27 03:15:00;;;;;;;4.42;2.62;;;15.20;99.90;;;;;;1916177;75;21347;-79
2023/09/27 03:17:52;;;;;;;3.98;3.00;;;15.20;99.90;;;;;;1916165;75;21182;-79
2023/09/27 03:20:46;;;;;;;5.45;2.90;;;15.20;99.90;;;;;;1916389;75;21155;-78
2023/09/27 03:23:38;;;;;;;4.70;3.00;;;15.20;99.90;;;;;;1916479;75;21102;-79
2023/09/27 03:26:30;;;;;;;3.65;2.42;;;15.10;99.90;;;;;;1916585;75;21114;-79
2023/09/27 03:29:22;;;;;;;3.52;2.62;;;15.00;99.90;;;;;;1916586;74;21119;-79
2023/09/27 03:32:14;;;;;;;4.95;2.77;;;15.10;99.90;;;;;;1916542;75;21507;-79
2023/09/27 03:35:07;;;;;;;5.58;2.95;;;15.00;99.90;;;;;;1916544;75;21204;-79
2023/09/27 03:37:59;;;;;;;6.83;2.95;;;15.10;99.90;;;;;;1916030;75;21492;-79
2023/09/27 03:40:51;;;;;;;4.17;3.02;;;15.10;99.90;;;;;;1916362;75;21106;-78
2023/09/27 03:43:43;;;;;;;5.70;2.85;;;15.10;99.90;;;;;;1916461;75;21576;-78
2023/09/27 03:46:34;;;;;;;6.40;2.65;;;15.00;99.90;;;;;;1916550;75;21105;-80
2023/09/27 03:49:26;;;;;;;6.10;2.90;;;15.00;99.90;;;;;;1916366;75;21514;-80
2023/09/27 03:52:19;;;;;;;5.90;3.08;;;15.10;99.90;;;;;;1915990;75;21058;-78
2023/09/27 03:55:11;;;;;;;5.65;3.40;;;15.00;99.90;;;;;;1916236;75;21583;-79
2023/09/27 03:58:03;;;;;;;5.00;3.05;;;14.90;99.90;;;;;;1916054;75;21224;-78
2023/09/27 04:00:54;;;;;;;5.37;3.17;;;14.80;99.90;;;;;;1915638;75;21106;-79
2023/09/27 04:03:46;;;;;;;5.12;2.95;;;14.80;99.90;;;;;;1916194;75;21163;-79
2023/09/27 04:06:40;;;;;;;5.85;3.02;;;14.70;99.90;;;;;;1916792;75;21310;-79
2023/09/27 04:09:32;;;;;;;4.20;3.00;;;14.70;99.90;;;;;;1916529;75;21568;-79
2023/09/27 04:12:24;;;;;;;5.22;2.80;;;14.70;99.90;;;;;;1916591;75;21102;-79
2023/09/27 04:15:16;;;;;;;4.45;2.95;;;14.70;99.90;;;;;;1916313;75;21103;-79
2023/09/27 04:18:08;;;;;;;5.62;3.02;;;14.70;99.90;;;;;;1916569;75;21096;-79
2023/09/27 04:21:07;;;;;;;4.42;3.05;;;14.60;99.90;;;;;;1916422;75;21086;-79
2023/09/27 04:23:59;;;;;;;4.95;3.33;;;14.60;99.90;;;;;;1916174;75;21137;-79
2023/09/27 04:26:51;;;;;;;6.45;3.10;;;14.50;99.90;;;;;;1916034;75;21110;-79
2023/09/27 04:29:42;;;;;;;6.72;3.15;;;14.50;99.90;;;;;;1903865;75;21616;-79
2023/09/27 04:32:36;;;;;;;4.78;3.33;;;14.50;99.90;;;;;;1903816;75;21140;-79
2023/09/27 04:35:28;;;;;;;5.47;3.40;;;14.50;99.90;;;;;;1903870;75;21073;-79
2023/09/27 04:38:30;;;;;;;5.83;3.60;;;14.50;99.90;;;;;;1904035;75;21087;-79
2023/09/27 04:41:22;;;;;;;8.03;3.77;;;14.50;99.90;;;;;;1949244;73;21128;-78
2023/09/27 04:44:14;;;;;;;5.72;3.40;;;14.50;99.90;;;;;;1949274;73;21053;-78
2023/09/27 04:47:06;;;;;;;5.28;3.30;;;14.50;99.90;;;;;;1949653;73;21162;-78
2023/09/27 04:49:58;;;;;;;5.12;3.40;;;14.50;99.90;;;;;;1949613;73;21045;-78
2023/09/27 04:52:50;;;;;;;6.53;3.77;;;14.40;99.90;;;;;;1949545;73;21115;-78
2023/09/27 04:55:42;;;;;;;4.60;3.33;;;14.40;99.90;;;;;;1949176;73;21154;-78
2023/09/27 04:58:33;;;;;;;6.62;3.30;;;14.30;99.90;;;;;;1949054;73;21523;-78
2023/09/27 05:01:26;;;;;;;4.67;3.00;;;14.30;99.90;;;;;;1949684;73;21080;-78
2023/09/27 05:04:19;;;;;;;5.47;3.40;;;14.40;99.90;;;;;;1949331;73;21111;-79
2023/09/27 05:07:11;;;;;;;6.12;3.52;;;14.40;99.90;;;;;;1949339;73;21080;-80
2023/09/27 05:10:03;;;;;;;7.97;3.30;;;14.40;99.90;;;;;;1949356;73;21070;-80
2023/09/27 05:12:55;;;;;;;4.17;3.30;;;14.40;99.90;;;;;;1949126;73;21104;-79
2023/09/27 05:15:49;;;;;;;7.72;3.50;;;14.30;99.90;;;;;;1949269;73;21092;-79
2023/09/27 05:18:41;;;;;;;5.90;3.45;;;14.20;99.90;;;;;;1949226;73;21169;-79
2023/09/27 05:21:33;;;;;;;5.97;3.42;;;14.20;99.90;;;;;;1949375;73;21052;-79
2023/09/27 05:24:25;;;;;;;4.53;3.30;;;14.20;99.90;;;;;;1949394;73;21147;-78
2023/09/27 05:27:16;;;;;;;6.50;3.55;;;14.20;99.90;;;;;;1949377;73;21100;-81
2023/09/27 05:30:11;;;;;;;7.83;4.47;;;14.30;99.90;;;;;;1949513;73;21048;-81
2023/09/27 05:33:04;;;;;;;7.55;3.80;;;14.30;99.90;;;;;;1949217;73;21081;-79
2023/09/27 05:35:56;;;;;;;7.40;3.90;;;14.20;99.90;;;;;;1949131;73;21140;-80
2023/09/27 05:38:47;;;;;;;6.40;3.52;;;14.20;99.90;;;;;;1948979;73;21088;-79
2023/09/27 05:41:42;;;;;;;5.53;3.27;;;14.10;99.90;;;;;;1951733;72;21615;-79
2023/09/27 05:44:33;;;;;;;5.20;3.75;;;14.10;99.90;;;;;;1952451;73;21084;-79
2023/09/27 05:47:25;;;;;;;6.00;3.22;;;14.10;99.90;;;;;;1952761;73;21128;-79
2023/09/27 05:50:17;;;;;;;8.43;4.00;;;14.10;99.90;;;;;;1952584;73;21084;-79
2023/09/27 05:53:09;;;;;;;8.13;3.90;;;14.20;99.90;;;;;;1952145;73;21053;-79
2023/09/27 05:56:03;;;;;;;11.33;5.58;;;14.30;99.90;;;;;;1952561;73;21080;-79
2023/09/27 05:58:54;;;;;;;10.90;4.35;;;14.30;99.90;;;;;;1952422;73;21088;-79
2023/09/27 06:01:47;;;;;;;9.95;4.45;;;14.10;99.90;;;;;;1952147;73;21155;-79
2023/09/27 06:04:38;;;;;;;6.45;3.22;;;14.10;99.90;;;;;;1952428;73;21593;-79
2023/09/27 06:07:31;;;;;;;5.85;3.47;;;14.00;99.90;;;;;;1952475;73;21132;-79
2023/09/27 06:10:23;;;;;;;4.83;3.47;;;14.00;99.90;;;;;;1952577;73;21096;-79
2023/09/27 06:13:14;;;;;;;7.03;3.80;;;14.00;99.90;;;;;;1952633;73;21261;-79
2023/09/27 06:16:14;;;;;;;6.08;3.50;;;14.00;99.90;;;;;;1952645;73;21150;-79
2023/09/27 06:19:05;;;;;;;6.28;3.80;;;14.10;99.90;;;;;;1952425;73;21100;-79
2023/09/27 06:21:58;;;;;;;9.45;4.50;;;14.10;99.90;;;;;;1952331;73;21162;-79
2023/09/27 06:24:51;;;;;;;8.58;3.35;;;14.10;99.90;;;;;;1952577;73;21100;-79
2023/09/27 06:27:43;;;;;;;6.10;3.72;;;14.10;99.90;;;;;;1952433;73;21115;-79
2023/09/27 06:30:35;;;;;;;6.65;4.05;;;14.10;99.90;;;;;;1952447;73;21068;-79
2023/09/27 06:33:26;;;;;;;7.33;3.70;;;14.10;99.90;;;;;;1952574;73;21084;-79
2023/09/27 06:36:21;;;;;;;7.33;3.30;;;14.10;99.90;;;;;;1952398;73;21540;-79
2023/09/27 06:39:13;;;;;;;7.97;3.72;;;14.20;99.90;;;;;;1952194;73;21707;-79
2023/09/27 06:42:06;;;;;;;9.38;4.10;;;14.30;99.90;;;;;;1950450;73;21092;-79
2023/09/27 06:44:58;;;;;;;10.32;4.35;;;14.30;99.90;;;;;;1949002;73;21080;-79
2023/09/27 06:47:50;;;;;;;8.55;3.90;;;14.40;99.90;;;;;;1949164;73;21556;-78
2023/09/27 06:50:43;;;;;;;5.80;3.72;;;14.40;99.90;;;;;;1949230;73;21148;-79
2023/09/27 06:53:35;;;;;;;5.72;3.72;;;14.40;99.90;;;;;;1949135;73;21210;-79
2023/09/27 06:56:27;;;;;;;7.33;3.83;;;14.50;99.90;;;;;;1949072;73;21083;-79
2023/09/27 06:59:19;;;;;;;8.63;3.90;;;14.60;99.90;;;;;;1948927;73;21057;-81
2023/09/27 07:02:11;;;;;;;6.37;3.85;;;14.60;99.90;;;;;;1949245;73;21128;-79
2023/09/27 07:05:04;;;;;;;8.00;3.90;;;14.60;99.90;;;;;;1949080;73;21048;-79
2023/09/27 07:07:56;;;;;;;5.85;3.33;;;14.70;99.90;;;;;;1948847;73;21083;-79
2023/09/27 07:10:48;;;;;;;5.20;3.45;;;14.70;99.90;;;;;;1949176;73;21096;-79
2023/09/27 07:13:41;;;;;;;6.67;4.12;;;14.80;99.90;;;;;;1948733;73;21033;-78
2023/09/27 07:16:33;;;;;;;10.23;3.95;;;14.90;99.90;;;;;;1948695;73;21624;-79
2023/09/27 07:19:27;;;;;;;6.28;4.20;;;14.90;99.90;;;;;;1949262;73;21169;-79
2023/09/27 07:22:19;;;;;;;9.18;5.90;;;15.00;99.90;;;;;;1949082;73;21118;-79
2023/09/27 07:25:14;;;;;;;9.25;5.05;;;15.20;99.90;;;;;;1949271;73;21141;-79
2023/09/27 07:28:07;;;;;;;6.62;3.60;;;15.30;99.90;;;;;;1949008;73;21100;-80
2023/09/27 07:30:58;;;;;;;7.17;4.15;;;15.30;99.90;;;;;;1949664;73;21139;-79
2023/09/27 07:33:52;;;;;;;5.92;3.58;;;15.40;99.90;;;;;;1948990;73;21140;-80
2023/09/27 07:36:45;;;;;;;4.90;3.55;;;15.50;99.90;;;;;;1949192;73;21033;-80
2023/09/27 07:39:38;;;;;;;7.03;3.50;;;15.60;99.90;;;;;;1949340;73;21647;-79
2023/09/27 07:42:29;;;;;;;6.62;3.52;;;15.80;99.90;;;;;;1950455;72;21133;-79
2023/09/27 07:45:22;;;;;;;5.50;3.47;;;15.90;99.90;;;;;;1952508;73;21169;-78
2023/09/27 07:48:14;;;;;;;5.95;3.25;;;16.00;99.90;;;;;;1952772;73;21096;-78
2023/09/27 07:51:14;;;;;;;8.60;3.55;;;16.10;99.90;;;;;;1952541;73;21104;-79
2023/09/27 07:54:07;;;;;;;6.30;3.08;;;16.10;99.90;;;;;;1952639;73;21088;-79
2023/09/27 07:57:00;;;;;;;5.30;3.30;;;16.20;99.90;;;;;;1952605;73;21049;-79
2023/09/27 07:59:54;;;;;;;6.05;3.47;;;16.30;99.90;;;;;;1952033;73;21088;-79
2023/09/27 08:02:46;;;;;;;9.40;4.20;;;16.40;99.90;;;;;;1952623;73;21099;-79
2023/09/27 08:05:43;;;;;;;7.15;3.62;;;16.50;99.90;;;;;;1952600;73;21104;-79
2023/09/27 08:08:35;;;;;;;6.47;3.58;;;16.60;99.90;;;;;;1952858;73;21528;-79
2023/09/27 08:11:30;;;;;;;6.20;3.90;;;16.60;99.90;;;;;;1952444;73;21096;-79
2023/09/27 08:14:23;;;;;;;7.20;3.90;;;16.70;99.90;;;;;;1952525;73;21108;-79
2023/09/27 08:17:16;;;;;;;7.85;4.10;;;16.80;99.90;;;;;;1952782;73;21714;-79
2023/09/27 08:20:12;;;;;;;5.53;4.08;;;16.80;99.90;;;;;;1952691;73;21148;-79
2023/09/27 08:23:04;;;;;;;8.73;4.35;;;16.90;99.90;;;;;;1952099;73;21076;-80
2023/09/27 08:25:56;;;;;;;7.40;4.10;;;17.00;99.90;;;;;;1952305;73;21096;-79
2023/09/27 08:28:48;;;;;;;5.50;3.52;;;17.10;99.90;;;;;;1952762;73;21135;-79
2023/09/27 08:31:39;;;;;;;6.20;4.12;;;17.20;99.90;;;;;;1952686;73;21504;-79
2023/09/27 08:34:31;;;;;;;6.25;3.62;;;17.30;99.90;;;;;;1952649;73;21555;-79
2023/09/27 08:37:23;;;;;;;6.22;3.72;;;17.40;99.90;;;;;;1952442;73;21084;-79
2023/09/27 08:40:16;;;;;;;6.17;4.00;;;17.50;99.90;;;;;;1952516;73;21731;-79
2023/09/27 08:43:07;;;;;;;6.28;4.10;;;17.60;99.90;;;;;;1951589;72;21174;-79
2023/09/27 08:45:59;;;;;;;6.87;3.80;;;17.70;99.90;;;;;;1949263;73;21138;-79
2023/09/27 08:48:55;;;;;;;6.00;3.85;;;17.80;99.90;;;;;;1948800;73;21149;-79
2023/09/27 08:51:47;;;;;;;9.23;3.25;;;17.80;99.90;;;;;;1948772;73;21088;-79
2023/09/27 08:54:41;;;;;;;9.80;4.30;;;17.90;99.90;;;;;;1949097;73;21108;-79
2023/09/27 08:57:34;;;;;;;5.22;3.42;;;17.90;99.90;;;;;;1948966;73;21125;-79
2023/09/27 09:00:26;;;;;;;7.50;3.37;;;17.90;99.90;;;;;;1949331;73;21617;-79
2023/09/27 09:03:19;;;;;;;6.00;3.65;;;18.00;99.90;;;;;;1949117;73;21526;-79
2023/09/27 09:06:12;;;;;;;6.92;3.40;;;18.10;99.90;;;;;;1949395;73;21146;-79
2023/09/27 09:09:10;;;;;;;7.72;3.40;;;18.20;99.90;;;;;;1948819;73;21108;-79
2023/09/27 09:12:08;;;;;;;8.30;3.45;;;18.20;99.90;;;;;;1948933;73;21124;-79
2023/09/27 09:14:56;;;;;;;5.17;3.22;;;18.30;99.90;;;;;;1949003;73;21190;-79
2023/09/27 09:17:52;;;;;;;6.95;3.22;;;18.40;99.90;;;;;;1949362;73;21535;-79
2023/09/27 09:20:54;;;;;;;6.67;3.83;;;18.50;99.90;;;;;;1949265;73;21165;-79
2023/09/27 09:23:49;;;;;;;5.75;3.20;;;18.60;99.90;;;;;;1949384;73;21072;-80
2023/09/27 09:26:42;;;;;;;4.83;3.08;;;18.70;99.90;;;;;;1949300;73;21157;-79
2023/09/27 09:29:47;;;;;;;6.25;3.45;;;18.70;99.90;;;;;;1949583;73;21177;-79
2023/09/27 09:32:50;;;;;;;6.22;3.83;;;18.80;99.90;;;;;;1949527;73;21088;-79
2023/09/27 09:35:41;;;;;;;7.28;3.70;;;18.90;99.90;;;;;;1949467;73;21088;-79
2023/09/27 09:38:46;;;;;;;8.28;3.70;;;19.00;99.90;;;;;;1827078;77;21135;-80
2023/09/27 09:41:46;;;;;;;6.75;3.33;;;19.00;99.90;;;;;;1949538;73;21068;-79
2023/09/27 09:44:39;;;;;;;7.47;3.62;;;19.20;99.90;;;;;;1949544;72;21226;-79
2023/09/27 09:48:13;;;;;;;4.78;2.98;;;19.20;99.90;;;;;;1949151;73;21194;-80
2023/09/27 09:51:07;;;;;;;6.00;3.52;;;19.30;99.90;;;;;;1949229;73;21114;-79
2023/09/27 09:53:59;;;;;;;4.60;3.27;;;19.40;99.90;;;;;;1949335;73;21111;-79
2023/09/27 09:56:51;;;;;;;7.42;3.20;;;19.40;99.90;;;;;;1949190;73;21586;-79
2023/09/27 09:59:48;;;;;;;7.78;3.45;;;19.50;99.90;;;;;;1949023;73;21124;-79
2023/09/27 10:02:44;;;;;;;5.45;3.00;;;19.60;99.90;;;;;;1949635;73;21158;-80
2023/09/27 10:05:40;;;;;;;8.68;3.60;;;19.70;99.90;;;;;;1949553;73;21088;-79
2023/09/27 10:08:34;;;;;;;5.17;3.33;;;19.70;99.90;;;;;;1949154;73;21099;-80
2023/09/27 10:11:36;;;;;;;6.58;3.27;;;19.80;99.90;;;;;;1949176;73;21072;-79
2023/09/27 10:14:29;;;;;;;5.85;3.77;;;19.90;99.90;;;;;;1949298;73;21204;-79
2023/09/27 10:17:25;;;;;;;6.28;3.80;;;20.00;99.90;;;;;;1949394;73;21096;-80
2023/09/27 10:20:22;;;;;;;5.92;3.90;;;20.10;99.90;;;;;;1949203;73;21100;-80
2023/09/27 10:23:13;;;;;;;6.47;3.87;;;20.30;99.90;;;;;;1949225;73;21091;-80
2023/09/27 10:26:23;;;;;;;7.05;3.25;;;20.40;99.90;;;;;;1949423;73;21137;-80
2023/09/27 10:29:16;;;;;;;6.45;3.72;;;20.50;99.90;;;;;;1949213;73;21053;-81
2023/09/27 10:32:26;;;;;;;7.15;3.40;;;20.60;99.90;;;;;;1949164;73;21165;-80
2023/09/27 10:35:21;;;;;;;6.97;3.72;;;20.60;99.90;;;;;;1949146;73;21089;-80
2023/09/27 10:38:12;;;;;;;6.37;3.50;;;20.70;99.90;;;;;;1949561;73;21202;-79
2023/09/27 10:41:04;;;;;;;4.87;3.50;;;20.80;99.90;;;;;;1949369;73;21122;-80
2023/09/27 10:43:55;;;;;;;4.97;3.58;;;20.90;99.90;;;;;;1949375;73;21118;-80
2023/09/27 10:46:48;;;;;;;8.03;3.80;;;21.00;99.90;;;;;;1950456;72;21112;-80
2023/09/27 10:49:43;;;;;;;8.40;4.10;;;21.10;99.90;;;;;;1952700;73;21095;-80
2023/09/27 10:52:39;;;;;;;6.60;3.20;;;21.10;99.90;;;;;;1952649;73;21107;-80
2023/09/27 10:55:39;;;;;;;4.67;3.20;;;21.20;99.90;;;;;;1952521;73;21084;-79
2023/09/27 10:58:31;;;;;;;8.23;5.45;;;21.30;99.90;;;;;;1952665;73;21103;-80
2023/09/27 11:01:24;;;;;;;4.90;3.50;;;21.30;99.90;;;;;;1952571;73;21130;-80
2023/09/27 11:04:15;;;;;;;8.38;5.72;;;21.40;99.90;;;;;;1952661;73;21075;-79
2023/09/27 11:07:07;;;;;;;5.28;3.35;;;21.50;99.90;;;;;;1952606;73;21136;-79
2023/09/27 11:09:58;;;;;;;4.12;2.95;;;21.60;99.90;;;;;;1952441;73;21103;-80
2023/09/27 11:12:50;;;;;;;5.42;3.30;;;21.70;99.90;;;;;;1952628;73;21133;-80
2023/09/27 11:15:43;;;;;;;7.22;3.20;;;21.70;99.90;;;;;;1952683;73;21166;-80
2023/09/27 11:18:36;;;;;;;6.00;3.52;;;21.90;99.90;;;;;;1952479;73;21126;-79
2023/09/27 11:21:27;;;;;;;4.85;3.33;;;21.90;99.90;;;;;;1952451;73;21567;-80
2023/09/27 11:24:19;;;;;;;4.95;3.05;;;22.00;99.90;;;;;;1952364;73;21489;-80
2023/09/27 11:27:13;;;;;;;4.60;3.65;;;22.20;99.90;;;;;;1952047;73;21161;-79
2023/09/27 11:30:07;;;;;;;7.17;3.35;;;22.20;99.90;;;;;;1952455;73;21113;-79
2023/09/27 11:33:01;;;;;;;8.58;3.58;;;22.30;99.90;;;;;;1952371;73;21109;-80
2023/09/27 11:35:54;;;;;;;6.70;3.37;;;22.30;99.90;;;;;;1952605;73;21174;-79
2023/09/27 11:38:51;;;;;;;6.25;3.37;;;22.30;99.90;;;;;;1952659;73;21124;-79
2023/09/27 11:41:45;;;;;;;5.95;2.90;;;22.40;99.90;;;;;;1953002;73;21138;-80
2023/09/27 11:44:37;;;;;;;4.78;2.87;;;22.40;99.90;;;;;;1952750;73;21095;-79
2023/09/27 11:47:29;;;;;;;6.90;3.20;;;22.40;99.90;;;;;;1951785;72;21554;-79
2023/09/27 11:50:26;;;;;;;4.28;3.17;;;22.50;99.90;;;;;;1949403;73;21092;-80
2023/09/27 11:53:18;;;;;;;5.45;3.27;;;22.60;99.90;;;;;;1949085;73;21793;-79
2023/09/27 11:56:09;;;;;;;6.15;3.50;;;22.70;99.90;;;;;;1949014;73;21036;-79
2023/09/27 11:59:01;;;;;;;5.55;3.75;;;22.80;99.90;;;;;;1949479;73;21516;-79
2023/09/27 12:01:52;;;;;;;6.45;4.10;;;22.90;99.90;;;;;;1949581;73;21143;-79
2023/09/27 12:04:44;;;;;;;5.40;3.22;;;23.00;99.90;;;;;;1949647;73;21178;-79
2023/09/27 12:07:36;;;;;;;4.95;3.95;;;23.10;99.90;;;;;;1949566;73;21121;-79
2023/09/27 12:10:28;;;;;;;5.85;4.17;;;23.30;99.90;;;;;;1949245;73;21157;-79
2023/09/27 12:13:19;;;;;;;5.78;4.12;;;23.40;99.90;;;;;;1949198;73;21045;-79
2023/09/27 12:16:11;;;;;;;8.08;4.03;;;23.60;99.90;;;;;;1949386;73;21648;-79
2023/09/27 12:19:03;;;;;;;6.30;3.92;;;23.70;99.90;;;;;;1949337;73;21228;-80
2023/09/27 12:21:54;;;;;;;7.30;3.87;;;23.70;99.90;;;;;;1948883;73;21041;-79
2023/09/27 12:24:46;;;;;;;7.95;4.12;;;23.80;99.90;;;;;;1949256;73;21162;-79
2023/09/27 12:27:38;;;;;;;7.87;4.47;;;23.80;99.90;;;;;;1949231;73;21136;-79
2023/09/27 12:30:29;;;;;;;10.50;4.58;;;23.90;99.90;;;;;;1949175;73;21044;-79
2023/09/27 12:33:21;;;;;;;5.75;4.00;;;23.90;99.90;;;;;;1949273;73;21092;-79
2023/09/27 12:36:13;;;;;;;5.97;3.80;;;24.00;99.90;;;;;;1948997;73;21656;-80
2023/09/27 12:39:05;;;;;;;4.97;3.83;;;24.20;99.90;;;;;;1948946;73;21049;-80
2023/09/27 12:42:00;;;;;;;5.22;3.60;;;24.30;99.90;;;;;;1948150;73;21433;-80
2023/09/27 12:44:51;;;;;;;5.47;3.85;;;24.20;99.90;;;;;;1948842;73;21112;-80
2023/09/27 12:47:43;;;;;;;5.80;3.20;;;24.30;99.90;;;;;;1949237;72;21085;-80
2023/09/27 12:50:34;;;;;;;5.55;3.42;;;24.40;99.90;;;;;;1949455;73;21098;-80
2023/09/27 12:53:26;;;;;;;4.72;3.15;;;24.50;99.90;;;;;;1949310;73;21703;-80
2023/09/27 12:56:18;;;;;;;7.03;3.02;;;24.60;99.90;;;;;;1949561;73;21154;-80
2023/09/27 12:59:10;;;;;;;8.15;3.15;;;24.70;99.90;;;;;;1949480;73;21053;-80
2023/09/27 13:02:04;;;;;;;6.45;3.12;;;24.70;99.90;;;;;;1949516;73;21154;-78
2023/09/27 13:04:56;;;;;;;5.30;3.60;;;24.80;99.90;;;;;;1949708;73;21101;-79
2023/09/27 13:07:47;;;;;;;11.40;3.75;;;24.90;99.90;;;;;;1949537;73;21555;-79
2023/09/27 13:10:39;;;;;;;7.15;4.10;;;25.10;99.90;;;;;;1949416;73;21161;-79
2023/09/27 13:13:31;;;;;;;9.10;3.67;;;25.20;99.90;;;;;;1949276;73;21123;-79
2023/09/27 13:16:22;;;;;;;5.15;3.40;;;25.20;99.90;;;;;;1949587;73;21097;-79
2023/09/27 13:19:13;;;;;;;7.33;4.00;;;25.30;99.90;;;;;;1949323;73;21149;-80
2023/09/27 13:22:06;;;;;;;5.10;2.87;;;25.50;99.90;;;;;;1949287;73;21517;-80
2023/09/27 13:24:58;;;;;;;4.72;2.87;;;25.60;99.90;;;;;;1949642;73;21784;-80
2023/09/27 13:27:49;;;;;;;4.15;2.83;;;25.50;99.90;;;;;;1949215;73;21107;-79
2023/09/27 13:30:40;;;;;;;4.97;2.85;;;25.50;99.90;;;;;;1949289;73;21096;-79
2023/09/27 13:33:32;;;;;;;5.47;3.50;;;25.50;99.90;;;;;;1949267;73;21057;-79
2023/09/27 13:36:23;;;;;;;6.12;3.50;;;25.60;99.90;;;;;;1949000;73;21088;-79
2023/09/27 13:39:16;;;;;;;8.53;3.47;;;25.60;99.90;;;;;;1948983;73;21602;-79
2023/09/27 13:42:09;;;;;;;8.03;3.90;;;25.80;99.90;;;;;;1949240;73;21528;-80
2023/09/27 13:45:02;;;;;;;9.28;3.40;;;25.90;99.90;;;;;;1949254;73;21161;-79
2023/09/27 13:47:53;;;;;;;7.85;3.37;;;25.90;99.90;;;;;;1949108;73;21081;-78
2023/09/27 13:50:45;;;;;;;6.25;3.42;;;26.00;99.90;;;;;;1949144;72;21134;-78
2023/09/27 13:53:47;;;;;;;4.03;3.33;;;25.90;99.90;;;;;;1949181;73;21522;-79
2023/09/27 13:56:40;;;;;;;5.30;3.77;;;25.80;99.90;;;;;;1949442;73;21092;-79
2023/09/27 13:59:32;;;;;;;6.25;3.83;;;25.70;99.90;;;;;;1949437;73;21104;-79
2023/09/27 14:02:24;;;;;;;6.37;3.58;;;25.90;99.90;;;;;;1949719;73;21103;-79
2023/09/27 14:05:15;;;;;;;9.05;3.80;;;26.00;99.90;;;;;;1949410;73;21049;-80
2023/09/27 14:08:23;;;;;;;5.72;3.50;;;26.30;99.90;;;;;;1949446;73;21108;-80
2023/09/27 14:11:20;;;;;;;6.10;3.27;;;27.30;99.90;;;;;;1949534;73;21146;-79
2023/09/27 14:14:13;;;;;;;7.33;4.00;;;29.00;99.90;;;;;;1949318;73;21104;-79
2023/09/27 14:17:08;;;;;;;7.62;3.62;;;29.50;99.90;;;;;;1947869;73;21061;-79
2023/09/27 14:19:59;;;;;;;6.72;3.52;;;30.30;99.90;;;;;;1949400;73;21145;-79
2023/09/27 14:22:52;;;;;;;6.33;3.50;;;31.10;99.90;;;;;;1949323;73;21150;-79
2023/09/27 14:25:44;;;;;;;5.12;3.33;;;32.00;99.40;;;;;;1949242;73;21532;-80
2023/09/27 14:28:36;;;;;;;5.72;3.10;;;32.70;96.40;;;;;;1949375;73;21153;-79
2023/09/27 14:31:28;;;;;;;5.87;3.20;;;33.40;94.20;;;;;;1949595;73;21663;-79
2023/09/27 14:34:19;;;;;;;4.75;3.60;;;33.30;93.20;;;;;;1949398;73;21070;-80
2023/09/27 14:37:12;;;;;;;5.47;4.10;;;33.70;91.20;;;;;;1949317;73;21157;-80
2023/09/27 14:40:04;;;;;;;5.17;3.65;;;34.00;90.50;;;;;;1949478;73;21618;-80
2023/09/27 14:42:57;;;;;;;4.78;3.45;;;34.30;88.40;;;;;;1949395;73;21100;-80
2023/09/27 14:45:49;;;;;;;4.67;3.25;;;34.80;84.90;;;;;;1949449;73;21190;-80
2023/09/27 14:48:41;;;;;;;6.97;3.87;;;34.70;82.30;;;;;;1949430;73;21121;-80
2023/09/27 14:51:33;;;;;;;6.62;3.52;;;34.30;82.10;;;;;;1952049;72;21602;-80
2023/09/27 14:54:25;;;;;;;7.70;3.35;;;34.10;81.80;;;;;;1952673;73;21605;-79
2023/09/27 14:57:17;;;;;;;6.20;3.60;;;34.40;81.00;;;;;;1952445;73;21215;-79
2023/09/27 15:00:11;;;;;;;5.37;3.60;;;34.80;78.30;;;;;;1952666;73;21088;-80